Time;durP1;ratioP1;P1;durP2;ratioP2;P2;SDS_P1;SDS_P2;PMS_P1;PMS_P2;Temp;Humidity;BMP_temperature;BMP_pressure;BME280_temperature;BME280_humidity;BME280_pressure;Samples;Min_cycle;Max_cycle;Signal;HPM_P1;HPM_P2
2022/02/22 00:01:38;;;;;;;6.57;3.97;;;7.10;96.70;;;;;;5047839;28;20064;-79
2022/02/22 00:04:07;;;;;;;5.38;3.70;;;7.00;96.70;;;;;;5034986;28;20040;-78
2022/02/22 00:06:36;;;;;;;6.47;3.78;;;6.90;96.70;;;;;;5047746;28;20068;-79
2022/02/22 00:09:04;;;;;;;4.78;3.65;;;7.00;96.70;;;;;;5030348;28;20047;-79
2022/02/22 00:11:33;;;;;;;6.10;3.45;;;7.00;96.70;;;;;;5049840;28;20409;-79
2022/02/22 00:14:03;;;;;;;4.30;3.13;;;7.00;96.70;;;;;;5046303;28;20040;-79
2022/02/22 00:16:31;;;;;;;4.88;2.88;;;6.90;96.70;;;;;;5046141;28;20056;-79
2022/02/22 00:18:59;;;;;;;5.68;3.47;;;6.80;96.70;;;;;;5044619;28;20063;-78
2022/02/22 00:21:27;;;;;;;4.45;2.60;;;6.90;96.70;;;;;;5045789;28;20521;-79
2022/02/22 00:23:55;;;;;;;4.35;2.67;;;6.90;96.70;;;;;;5048019;28;20501;-79
2022/02/22 00:26:23;;;;;;;3.85;2.55;;;6.80;96.70;;;;;;5046599;28;20052;-79
2022/02/22 00:28:52;;;;;;;5.47;2.60;;;6.90;96.70;;;;;;5030515;28;20117;-79
2022/02/22 00:31:22;;;;;;;4.15;2.53;;;6.90;96.70;;;;;;5063525;28;20487;-79
2022/02/22 00:33:50;;;;;;;4.07;2.60;;;6.90;96.70;;;;;;5047914;28;20044;-79
2022/02/22 00:36:18;;;;;;;3.85;2.47;;;6.90;96.70;;;;;;5063422;28;20040;-79
2022/02/22 00:38:49;;;;;;;4.30;2.03;;;6.90;96.70;;;;;;5063415;28;20517;-78
2022/02/22 00:41:18;;;;;;;4.03;1.52;;;6.90;96.70;;;;;;5070999;28;20036;-79
2022/02/22 00:43:46;;;;;;;4.13;1.77;;;6.80;96.70;;;;;;5081068;28;20542;-78
2022/02/22 00:46:14;;;;;;;2.95;1.98;;;6.80;96.70;;;;;;5061753;28;20043;-79
2022/02/22 00:48:46;;;;;;;4.97;2.00;;;6.80;96.70;;;;;;5061429;28;20782;-79
2022/02/22 00:51:15;;;;;;;2.97;1.75;;;6.60;96.70;;;;;;5063671;28;20506;-79
2022/02/22 00:53:43;;;;;;;3.15;2.47;;;6.70;96.70;;;;;;5070240;28;20324;-79
2022/02/22 00:56:11;;;;;;;3.17;1.65;;;6.60;96.70;;;;;;5066261;28;20044;-79
2022/02/22 00:58:40;;;;;;;4.07;2.30;;;6.60;96.70;;;;;;5063532;28;20041;-79
2022/02/22 01:01:11;;;;;;;4.25;2.50;;;6.50;96.70;;;;;;5063242;28;20676;-79
2022/02/22 01:03:39;;;;;;;4.60;2.75;;;6.50;96.70;;;;;;5065036;28;20062;-79
2022/02/22 01:06:12;;;;;;;3.75;2.28;;;6.60;96.70;;;;;;5065096;28;20048;-79
2022/02/22 01:08:40;;;;;;;3.38;2.30;;;6.60;96.70;;;;;;5067784;28;20497;-79
2022/02/22 01:11:09;;;;;;;5.00;2.63;;;6.60;96.70;;;;;;5063529;28;20094;-79
2022/02/22 01:13:37;;;;;;;3.95;2.53;;;6.60;96.70;;;;;;5062833;28;20066;-79
2022/02/22 01:16:05;;;;;;;3.03;2.30;;;6.60;96.70;;;;;;5061246;28;20552;-79
2022/02/22 01:18:33;;;;;;;5.88;2.97;;;6.50;96.70;;;;;;5065535;28;20051;-79
2022/02/22 01:21:01;;;;;;;4.43;2.33;;;6.50;96.70;;;;;;5064819;28;20392;-79
2022/02/22 01:23:31;;;;;;;4.07;2.83;;;6.50;96.70;;;;;;5069408;28;20086;-79
2022/02/22 01:26:02;;;;;;;3.88;2.58;;;6.50;96.70;;;;;;5048894;28;20068;-79
2022/02/22 01:28:30;;;;;;;3.42;2.22;;;6.50;96.70;;;;;;5052923;28;20040;-79
2022/02/22 01:31:00;;;;;;;3.95;2.25;;;6.30;96.70;;;;;;5066293;28;20040;-79
2022/02/22 01:33:28;;;;;;;4.85;2.17;;;6.40;96.70;;;;;;5064260;28;20079;-79
2022/02/22 01:35:56;;;;;;;2.42;1.80;;;6.40;96.70;;;;;;5061922;28;20041;-79
2022/02/22 01:38:24;;;;;;;4.53;1.75;;;6.40;96.70;;;;;;5064312;28;20502;-79
2022/02/22 01:40:55;;;;;;;4.00;1.65;;;6.40;96.70;;;;;;5045381;28;20147;-78
2022/02/22 01:43:23;;;;;;;4.35;2.00;;;6.30;96.70;;;;;;5045248;28;20103;-79
2022/02/22 01:45:51;;;;;;;3.30;2.25;;;6.30;96.70;;;;;;5059703;28;20040;-80
2022/02/22 01:48:20;;;;;;;3.47;1.95;;;6.40;96.70;;;;;;5044667;28;20140;-79
2022/02/22 01:50:48;;;;;;;3.58;2.17;;;6.30;96.70;;;;;;5062748;28;20051;-79
2022/02/22 01:53:16;;;;;;;4.38;2.15;;;6.30;96.70;;;;;;5046215;28;20118;-79
2022/02/22 01:55:44;;;;;;;3.13;2.33;;;6.30;96.70;;;;;;5046012;28;20059;-79
2022/02/22 01:58:14;;;;;;;3.50;2.05;;;6.20;96.70;;;;;;5062185;28;20060;-79
2022/02/22 02:00:45;;;;;;;4.55;2.42;;;6.20;96.70;;;;;;5064672;28;20047;-79
2022/02/22 02:03:15;;;;;;;3.33;2.35;;;6.20;96.70;;;;;;5062437;28;20060;-79
2022/02/22 02:05:43;;;;;;;3.78;2.45;;;6.20;96.70;;;;;;5028033;28;20414;-79
2022/02/22 02:08:15;;;;;;;4.78;2.38;;;6.30;96.70;;;;;;5045565;28;20043;-79
2022/02/22 02:10:43;;;;;;;5.13;2.40;;;6.10;96.70;;;;;;5067699;28;20548;-79
2022/02/22 02:13:13;;;;;;;4.85;2.40;;;6.20;96.70;;;;;;5050373;28;20102;-79
2022/02/22 02:15:41;;;;;;;3.33;2.35;;;6.20;96.70;;;;;;5026263;28;20584;-79
2022/02/22 02:18:10;;;;;;;4.57;2.50;;;6.10;96.70;;;;;;5038431;28;20783;-79
2022/02/22 02:20:38;;;;;;;3.55;2.10;;;6.00;96.70;;;;;;5044374;28;20043;-79
2022/02/22 02:23:07;;;;;;;6.13;2.47;;;5.90;96.70;;;;;;5061550;28;20103;-79
2022/02/22 02:25:36;;;;;;;3.80;2.17;;;5.80;96.70;;;;;;5044712;28;20041;-79
2022/02/22 02:28:06;;;;;;;4.38;2.03;;;5.70;96.70;;;;;;5061911;28;20125;-79
2022/02/22 02:30:34;;;;;;;4.10;1.90;;;5.70;96.70;;;;;;5028396;28;20817;-78
2022/02/22 02:33:02;;;;;;;4.40;2.03;;;5.70;96.70;;;;;;5045406;28;20567;-79
2022/02/22 02:35:32;;;;;;;3.90;2.13;;;5.70;96.70;;;;;;5062883;28;20044;-79
2022/02/22 02:38:00;;;;;;;4.30;2.00;;;5.70;96.70;;;;;;5043977;28;20700;-79
2022/02/22 02:40:42;;;;;;;2.92;1.67;;;5.70;96.70;;;;;;5028290;28;20041;-78
2022/02/22 02:43:10;;;;;;;3.40;1.38;;;5.70;96.70;;;;;;5038836;28;20045;-79
2022/02/22 02:45:39;;;;;;;6.03;1.88;;;5.70;96.70;;;;;;5045115;28;20046;-79
2022/02/22 02:48:07;;;;;;;2.90;1.67;;;5.60;96.70;;;;;;5027632;28;20072;-79
2022/02/22 02:50:35;;;;;;;2.17;1.63;;;5.50;96.70;;;;;;5025936;28;20062;-79
2022/02/22 02:53:04;;;;;;;4.25;1.70;;;5.50;96.70;;;;;;5038790;28;20094;-79
2022/02/22 02:55:33;;;;;;;4.65;1.50;;;5.70;96.70;;;;;;5044417;28;20295;-79
2022/02/22 02:58:02;;;;;;;2.75;1.40;;;5.70;96.70;;;;;;5041908;28;20146;-79
2022/02/22 03:00:31;;;;;;;3.50;1.70;;;5.60;96.70;;;;;;5044117;28;20406;-79
2022/02/22 03:02:59;;;;;;;3.20;1.48;;;5.40;96.70;;;;;;5043050;28;20071;-78
2022/02/22 03:05:29;;;;;;;2.83;1.70;;;5.60;96.70;;;;;;5040941;28;20486;-79
2022/02/22 03:07:59;;;;;;;4.93;1.67;;;5.60;96.70;;;;;;5022723;28;20627;-79
2022/02/22 03:10:30;;;;;;;3.33;1.50;;;5.60;96.70;;;;;;5040074;28;20040;-79
2022/02/22 03:12:59;;;;;;;2.58;1.70;;;5.60;96.70;;;;;;5027491;28;20036;-79
2022/02/22 03:15:29;;;;;;;6.85;1.88;;;5.60;96.70;;;;;;5044956;28;20037;-79
2022/02/22 03:17:57;;;;;;;4.40;2.20;;;5.60;96.70;;;;;;5030195;28;20517;-79
2022/02/22 03:20:26;;;;;;;2.72;1.48;;;5.30;96.70;;;;;;5042327;28;20045;-79
2022/02/22 03:22:54;;;;;;;3.92;1.70;;;5.50;96.70;;;;;;5062762;28;20036;-79
2022/02/22 03:25:23;;;;;;;2.97;1.40;;;5.60;96.70;;;;;;5025159;28;20682;-79
2022/02/22 03:27:51;;;;;;;4.03;1.75;;;5.50;96.70;;;;;;5022707;28;20079;-79
2022/02/22 03:30:20;;;;;;;2.65;1.65;;;5.40;96.70;;;;;;5062766;28;20049;-79
2022/02/22 03:32:51;;;;;;;2.95;1.58;;;5.40;96.70;;;;;;5063108;28;20079;-79
2022/02/22 03:35:20;;;;;;;3.10;1.70;;;5.40;96.70;;;;;;5031009;28;20068;-79
2022/02/22 03:37:48;;;;;;;2.67;1.30;;;5.40;96.70;;;;;;5027269;28;20045;-79
2022/02/22 03:40:16;;;;;;;2.47;1.27;;;5.30;96.70;;;;;;5063184;28;20573;-79
2022/02/22 03:42:45;;;;;;;2.65;1.25;;;5.30;96.70;;;;;;5047779;28;20429;-79
2022/02/22 03:45:15;;;;;;;2.88;1.52;;;5.40;96.70;;;;;;5028379;28;20036;-79
2022/02/22 03:47:44;;;;;;;2.10;0.98;;;5.30;96.70;;;;;;5044691;28;20082;-79
2022/02/22 03:50:15;;;;;;;3.33;1.50;;;5.20;96.70;;;;;;5046636;28;20486;-79
2022/02/22 03:52:44;;;;;;;2.28;1.10;;;5.30;96.70;;;;;;5031178;28;20355;-79
2022/02/22 03:55:14;;;;;;;3.20;1.38;;;5.20;96.70;;;;;;5046576;28;20044;-79
2022/02/22 03:57:43;;;;;;;2.92;1.30;;;5.20;96.70;;;;;;5073131;28;20093;-79
2022/02/22 04:00:14;;;;;;;3.45;1.65;;;5.10;96.70;;;;;;5047363;28;20116;-79
2022/02/22 04:02:44;;;;;;;5.70;1.60;;;5.10;96.70;;;;;;5048523;28;20044;-79
2022/02/22 04:05:14;;;;;;;3.80;1.50;;;5.10;96.70;;;;;;5044674;28;20040;-79
2022/02/22 04:07:45;;;;;;;3.17;1.35;;;5.00;96.70;;;;;;5065374;28;20072;-79
2022/02/22 04:10:14;;;;;;;2.28;1.48;;;5.00;96.70;;;;;;5080153;28;20052;-79
2022/02/22 04:12:43;;;;;;;3.75;1.95;;;5.00;96.70;;;;;;5046314;28;20040;-79
2022/02/22 04:15:11;;;;;;;3.00;1.63;;;5.00;96.70;;;;;;5042700;28;20616;-79
2022/02/22 04:17:40;;;;;;;2.72;1.50;;;5.00;96.70;;;;;;5045871;28;20052;-79
2022/02/22 04:20:13;;;;;;;3.38;1.52;;;5.00;96.70;;;;;;5053681;28;20501;-79
2022/02/22 04:22:42;;;;;;;2.15;1.35;;;5.00;96.70;;;;;;5062261;28;20041;-79
2022/02/22 04:25:11;;;;;;;2.00;1.20;;;5.10;96.70;;;;;;5065104;28;20420;-79
2022/02/22 04:27:39;;;;;;;2.17;1.25;;;5.00;96.70;;;;;;5045940;28;20059;-79
2022/02/22 04:30:10;;;;;;;2.33;1.27;;;5.00;96.70;;;;;;5032223;28;20045;-77
2022/02/22 04:32:38;;;;;;;2.15;1.30;;;4.90;96.70;;;;;;5077749;28;20048;-77
2022/02/22 04:35:08;;;;;;;3.15;1.13;;;4.90;96.70;;;;;;5030901;28;20461;-77
2022/02/22 04:37:38;;;;;;;3.65;1.58;;;4.90;96.70;;;;;;5040695;28;20061;-77
2022/02/22 04:40:08;;;;;;;2.40;1.52;;;4.70;96.70;;;;;;5058704;28;20707;-76
2022/02/22 04:42:36;;;;;;;3.42;1.55;;;4.70;96.70;;;;;;5063884;28;20064;-77
2022/02/22 04:45:06;;;;;;;2.08;1.50;;;4.70;96.70;;;;;;5064638;28;20036;-76
2022/02/22 04:47:34;;;;;;;2.45;1.40;;;4.80;96.70;;;;;;5062540;28;20055;-76
2022/02/22 04:50:05;;;;;;;2.83;1.45;;;4.90;96.70;;;;;;5062510;28;20504;-77
2022/02/22 04:52:33;;;;;;;2.78;1.63;;;4.60;96.70;;;;;;5067538;28;20048;-76
2022/02/22 04:55:06;;;;;;;2.72;1.60;;;4.80;96.70;;;;;;5066646;28;20417;-76
2022/02/22 04:57:35;;;;;;;2.67;1.75;;;4.90;96.70;;;;;;5063111;28;20051;-76
2022/02/22 05:00:05;;;;;;;3.05;1.55;;;4.80;96.70;;;;;;5046361;28;20135;-77
2022/02/22 05:02:34;;;;;;;2.65;1.60;;;4.90;96.70;;;;;;5062466;28;20123;-77
2022/02/22 05:05:02;;;;;;;3.33;1.65;;;4.90;96.70;;;;;;5069428;28;20382;-77
2022/02/22 05:07:31;;;;;;;4.03;1.88;;;4.90;96.70;;;;;;5045481;28;20126;-77
2022/02/22 05:10:04;;;;;;;4.13;1.73;;;4.90;96.70;;;;;;5063258;28;20045;-76
2022/02/22 05:12:33;;;;;;;5.10;1.70;;;4.70;96.70;;;;;;5063410;28;20123;-76
2022/02/22 05:15:05;;;;;;;4.25;1.60;;;4.80;96.70;;;;;;5046591;28;20578;-76
2022/02/22 05:17:33;;;;;;;2.78;1.73;;;4.80;96.70;;;;;;5060922;28;20422;-76
2022/02/22 05:20:06;;;;;;;3.15;1.48;;;4.70;96.70;;;;;;5061072;28;20056;-76
2022/02/22 05:22:39;;;;;;;3.30;1.50;;;4.60;96.70;;;;;;5082184;28;20046;-77
2022/02/22 05:25:10;;;;;;;3.25;1.60;;;4.70;96.70;;;;;;5060676;28;20040;-76
2022/02/22 05:27:39;;;;;;;2.45;1.35;;;4.60;96.70;;;;;;5083318;28;20049;-76
2022/02/22 05:30:09;;;;;;;4.65;1.80;;;4.60;96.70;;;;;;5062139;28;20048;-80
2022/02/22 05:32:38;;;;;;;3.17;1.75;;;4.60;96.70;;;;;;5062340;28;20040;-76
2022/02/22 05:35:09;;;;;;;3.35;1.73;;;4.60;96.70;;;;;;5063539;28;20037;-76
2022/02/22 05:37:39;;;;;;;3.47;1.38;;;4.70;96.70;;;;;;5066486;28;20052;-76
2022/02/22 05:40:13;;;;;;;3.90;2.22;;;4.90;96.70;;;;;;5060592;28;20517;-76
2022/02/22 05:42:41;;;;;;;8.55;3.67;;;4.80;96.70;;;;;;5059623;28;20040;-76
2022/02/22 05:45:11;;;;;;;6.57;3.22;;;4.60;96.70;;;;;;5058621;28;20047;-77
2022/02/22 05:47:40;;;;;;;6.65;2.67;;;4.60;96.70;;;;;;5045089;28;20569;-76
2022/02/22 05:50:09;;;;;;;5.70;2.17;;;4.70;96.70;;;;;;5060808;28;20037;-76
2022/02/22 05:52:37;;;;;;;6.72;3.15;;;4.60;96.70;;;;;;5060277;28;20040;-76
2022/02/22 05:55:06;;;;;;;7.20;3.63;;;4.60;96.70;;;;;;5078584;28;20041;-76
2022/02/22 05:57:38;;;;;;;3.88;2.28;;;4.60;96.70;;;;;;5059788;28;20052;-76
2022/02/22 06:00:09;;;;;;;4.47;2.30;;;4.50;96.70;;;;;;5060708;28;20045;-77
2022/02/22 06:02:37;;;;;;;4.20;2.63;;;4.40;96.70;;;;;;5063019;28;20036;-77
2022/02/22 06:05:07;;;;;;;6.20;2.35;;;4.50;96.70;;;;;;5062041;28;20124;-77
2022/02/22 06:07:35;;;;;;;4.93;2.15;;;4.40;96.70;;;;;;5074602;28;20036;-77
2022/02/22 06:10:04;;;;;;;3.10;2.00;;;4.60;96.70;;;;;;5063318;28;20052;-77
2022/02/22 06:12:33;;;;;;;4.40;2.20;;;4.70;96.70;;;;;;5044220;28;20075;-77
2022/02/22 06:15:05;;;;;;;5.18;2.30;;;4.70;96.70;;;;;;5059834;28;20365;-77
2022/02/22 06:17:40;;;;;;;3.97;2.15;;;4.70;96.70;;;;;;5061091;28;20513;-77
2022/02/22 06:20:10;;;;;;;7.15;2.40;;;4.70;96.70;;;;;;5063410;28;20041;-77
2022/02/22 06:22:40;;;;;;;3.90;1.92;;;4.70;96.70;;;;;;5027026;28;20123;-77
2022/02/22 06:25:10;;;;;;;4.35;2.58;;;4.60;96.70;;;;;;5081662;28;20048;-77
2022/02/22 06:27:49;;;;;;;7.18;2.35;;;4.70;96.70;;;;;;5058346;28;20040;-77
2022/02/22 06:30:21;;;;;;;4.82;1.98;;;4.60;96.70;;;;;;5077538;28;20076;-77
2022/02/22 06:32:51;;;;;;;5.00;2.00;;;4.60;96.70;;;;;;5056471;28;20044;-77
2022/02/22 06:35:21;;;;;;;7.20;2.20;;;4.40;96.70;;;;;;5063038;28;20055;-77
2022/02/22 06:37:50;;;;;;;5.72;2.03;;;4.30;96.70;;;;;;5062885;28;20386;-77
2022/02/22 06:40:19;;;;;;;4.93;1.88;;;4.30;96.70;;;;;;5063360;28;20057;-77
2022/02/22 06:42:52;;;;;;;2.83;1.50;;;4.20;96.70;;;;;;5033770;28;20041;-76
2022/02/22 06:45:22;;;;;;;4.93;2.08;;;4.30;96.70;;;;;;5064178;28;20445;-77
2022/02/22 06:47:51;;;;;;;3.25;1.63;;;4.30;96.70;;;;;;5058051;28;20167;-77
2022/02/22 06:50:19;;;;;;;2.97;1.67;;;4.30;96.70;;;;;;5042024;28;20037;-77
2022/02/22 06:52:48;;;;;;;7.32;1.60;;;4.50;96.70;;;;;;5063288;28;20517;-77
2022/02/22 06:55:17;;;;;;;3.20;1.58;;;4.50;96.70;;;;;;5045777;28;20566;-76
2022/02/22 06:57:52;;;;;;;3.03;1.95;;;4.50;96.70;;;;;;5044208;28;20063;-77
2022/02/22 07:00:21;;;;;;;3.50;1.80;;;4.50;96.70;;;;;;5031669;28;20052;-77
2022/02/22 07:02:50;;;;;;;2.60;1.80;;;4.60;96.70;;;;;;5061301;28;20039;-77
2022/02/22 07:05:18;;;;;;;4.43;2.15;;;4.60;96.70;;;;;;5050078;28;20144;-77
2022/02/22 07:07:53;;;;;;;5.80;2.70;;;4.70;96.70;;;;;;5059239;28;20044;-76
2022/02/22 07:10:21;;;;;;;3.70;2.28;;;4.80;96.70;;;;;;5044104;28;20059;-77
2022/02/22 07:12:51;;;;;;;6.28;2.53;;;5.00;96.70;;;;;;5044140;28;20422;-77
2022/02/22 07:15:19;;;;;;;8.77;2.70;;;5.20;96.70;;;;;;5081630;28;20079;-76
2022/02/22 07:17:48;;;;;;;6.03;2.72;;;5.10;96.70;;;;;;5026783;28;20908;-77
2022/02/22 07:20:18;;;;;;;5.50;2.78;;;5.30;96.70;;;;;;5042257;28;20435;-76
2022/02/22 07:22:48;;;;;;;9.38;2.70;;;5.30;96.70;;;;;;5064424;28;20106;-77
2022/02/22 07:25:18;;;;;;;5.20;2.60;;;5.50;96.70;;;;;;5061709;28;20045;-77
2022/02/22 07:27:47;;;;;;;5.65;2.75;;;5.60;96.70;;;;;;5059256;28;20090;-77
2022/02/22 07:30:18;;;;;;;4.68;1.85;;;5.50;96.70;;;;;;5060594;28;20600;-76
2022/02/22 07:32:47;;;;;;;3.00;1.65;;;5.40;96.70;;;;;;5044476;28;20599;-77
2022/02/22 07:35:17;;;;;;;4.88;1.83;;;5.40;96.70;;;;;;5061822;28;20486;-77
2022/02/22 07:37:46;;;;;;;2.70;1.27;;;5.50;96.70;;;;;;5043749;28;20394;-77
2022/02/22 07:40:16;;;;;;;3.00;1.50;;;5.50;96.70;;;;;;5067765;28;20063;-77
2022/02/22 07:42:45;;;;;;;4.63;1.85;;;5.60;96.70;;;;;;5069207;28;20524;-77
2022/02/22 07:45:15;;;;;;;2.38;1.50;;;5.70;96.70;;;;;;5042771;28;20529;-77
2022/02/22 07:47:44;;;;;;;3.22;2.00;;;5.80;96.70;;;;;;5061326;28;20493;-77
2022/02/22 07:50:12;;;;;;;5.43;1.83;;;5.90;96.70;;;;;;5060691;28;20040;-77
2022/02/22 07:52:40;;;;;;;3.35;1.90;;;6.00;96.70;;;;;;5060616;28;20102;-77
2022/02/22 07:55:09;;;;;;;5.93;2.00;;;6.10;96.70;;;;;;5058369;28;20040;-77
2022/02/22 07:57:39;;;;;;;4.43;2.10;;;6.20;96.70;;;;;;5061519;28;20136;-77
2022/02/22 08:00:08;;;;;;;5.18;2.80;;;6.20;96.70;;;;;;5065424;28;20642;-77
2022/02/22 08:02:38;;;;;;;8.75;3.47;;;6.30;96.70;;;;;;5059239;28;20052;-76
2022/02/22 08:05:07;;;;;;;6.43;3.35;;;6.40;96.70;;;;;;5059232;28;20036;-77
2022/02/22 08:07:36;;;;;;;10.13;4.57;;;6.50;96.70;;;;;;5059821;28;20455;-77
2022/02/22 08:10:07;;;;;;;8.48;4.07;;;6.70;96.70;;;;;;5061134;28;20039;-78
2022/02/22 08:12:35;;;;;;;8.02;4.32;;;6.80;96.70;;;;;;5062236;28;20114;-78
2022/02/22 08:15:04;;;;;;;10.27;4.07;;;7.00;96.70;;;;;;5060029;28;20037;-78
2022/02/22 08:17:32;;;;;;;10.05;4.15;;;7.10;96.70;;;;;;5069073;28;20039;-79
2022/02/22 08:20:02;;;;;;;8.88;4.13;;;7.20;96.70;;;;;;5083725;28;20477;-78
2022/02/22 08:22:31;;;;;;;8.45;4.22;;;7.30;96.70;;;;;;5079265;28;20390;-78
2022/02/22 08:24:59;;;;;;;9.65;4.47;;;7.40;96.70;;;;;;5078886;28;20075;-78
2022/02/22 08:27:28;;;;;;;10.88;4.63;;;7.50;96.70;;;;;;5068542;28;20417;-77
2022/02/22 08:29:56;;;;;;;9.68;4.40;;;7.70;96.70;;;;;;5065710;28;20127;-77
2022/02/22 08:32:24;;;;;;;12.73;4.53;;;7.80;96.70;;;;;;5062018;28;20044;-76
2022/02/22 08:34:55;;;;;;;9.68;4.15;;;7.90;96.70;;;;;;5063751;28;20060;-77
2022/02/22 08:37:25;;;;;;;7.13;3.53;;;8.10;96.70;;;;;;5064804;28;20048;-78
2022/02/22 08:39:54;;;;;;;7.38;2.70;;;8.30;96.70;;;;;;5065521;28;20061;-78
2022/02/22 08:42:22;;;;;;;4.75;2.60;;;8.50;96.70;;;;;;5061262;28;20033;-78
2022/02/22 08:45:11;;;;;;;5.22;2.60;;;8.50;96.70;;;;;;5043340;28;20410;-79
2022/02/22 08:47:39;;;;;;;5.45;2.88;;;8.70;96.70;;;;;;5039446;28;20040;-78
2022/02/22 08:50:08;;;;;;;6.40;2.80;;;8.80;96.70;;;;;;5070525;28;20075;-79
2022/02/22 08:52:38;;;;;;;5.93;3.10;;;8.90;96.70;;;;;;5065245;28;20269;-79
2022/02/22 08:55:06;;;;;;;9.20;4.05;;;9.00;96.70;;;;;;5060656;28;20532;-80
2022/02/22 08:57:35;;;;;;;6.53;3.72;;;9.20;96.70;;;;;;5027069;28;20422;-80
2022/02/22 09:00:10;;;;;;;7.97;4.03;;;9.40;96.70;;;;;;5046927;28;20056;-80
2022/02/22 09:02:40;;;;;;;12.32;5.03;;;9.50;96.70;;;;;;5064471;28;20691;-80
2022/02/22 09:05:09;;;;;;;10.07;4.80;;;9.60;96.70;;;;;;5062510;28;20041;-80
2022/02/22 09:07:39;;;;;;;11.77;5.32;;;9.80;96.70;;;;;;5062760;28;20040;-80
2022/02/22 09:10:08;;;;;;;17.02;5.63;;;10.00;96.70;;;;;;5044212;28;20111;-79
2022/02/22 09:12:37;;;;;;;10.40;3.58;;;10.20;96.70;;;;;;5040284;28;20068;-77
2022/02/22 09:15:07;;;;;;;10.55;2.58;;;10.40;96.70;;;;;;5045782;28;20067;-79
2022/02/22 09:17:35;;;;;;;10.05;3.10;;;10.60;96.70;;;;;;5047289;28;20040;-77
2022/02/22 09:20:05;;;;;;;7.63;2.85;;;10.80;96.70;;;;;;5048471;28;20452;-77
2022/02/22 09:22:33;;;;;;;7.18;2.08;;;11.00;96.70;;;;;;5042784;28;20037;-77
2022/02/22 09:25:06;;;;;;;3.55;1.60;;;11.20;96.70;;;;;;5044500;28;20074;-75
2022/02/22 09:27:42;;;;;;;2.25;0.93;;;11.40;96.70;;;;;;5060448;28;20590;-77
2022/02/22 09:30:14;;;;;;;3.28;0.88;;;11.50;96.70;;;;;;5062958;28;20037;-78
2022/02/22 09:32:42;;;;;;;3.10;0.60;;;11.70;96.70;;;;;;5044488;28;20517;-77
2022/02/22 09:35:14;;;;;;;1.80;0.52;;;11.90;96.70;;;;;;5063675;28;20240;-77
2022/02/22 09:37:42;;;;;;;0.93;0.50;;;12.10;96.70;;;;;;5062782;28;20028;-77
2022/02/22 09:40:14;;;;;;;2.25;0.40;;;12.40;96.70;;;;;;5054209;28;20056;-77
2022/02/22 09:42:43;;;;;;;1.17;0.52;;;12.60;96.70;;;;;;5077941;28;20040;-78
2022/02/22 09:45:14;;;;;;;1.30;0.60;;;12.70;96.70;;;;;;5061903;28;20101;-78
2022/02/22 09:47:44;;;;;;;2.47;0.52;;;12.80;96.70;;;;;;5064265;28;20482;-77
2022/02/22 09:50:16;;;;;;;0.88;0.40;;;12.90;96.70;;;;;;5066227;28;20040;-79
2022/02/22 09:52:49;;;;;;;0.90;0.40;;;12.90;96.70;;;;;;5076246;28;20040;-79
2022/02/22 09:55:19;;;;;;;1.02;0.50;;;13.00;96.70;;;;;;5060920;28;20365;-80
2022/02/22 09:57:53;;;;;;;1.17;0.40;;;13.20;96.70;;;;;;5062403;28;20098;-79
2022/02/22 10:00:23;;;;;;;1.70;0.40;;;13.50;96.50;;;;;;5062715;28;20389;-77
2022/02/22 10:02:52;;;;;;;1.25;0.40;;;13.50;95.50;;;;;;5063749;28;20089;-78
2022/02/22 10:05:22;;;;;;;1.30;0.30;;;13.60;96.70;;;;;;5064460;28;20497;-78
2022/02/22 10:07:56;;;;;;;1.55;0.38;;;13.70;96.70;;;;;;5061214;28;20558;-78
2022/02/22 10:10:37;;;;;;;2.42;0.57;;;13.80;96.70;;;;;;5094086;27;20056;-78
2022/02/22 10:13:07;;;;;;;1.13;0.47;;;14.00;96.70;;;;;;5059568;28;20040;-78
2022/02/22 10:15:41;;;;;;;0.90;0.17;;;14.10;96.70;;;;;;5047240;28;20044;-78
2022/02/22 10:18:10;;;;;;;1.80;0.38;;;14.20;94.40;;;;;;5060997;28;20049;-78
2022/02/22 10:20:40;;;;;;;2.08;0.28;;;14.30;94.00;;;;;;5047499;28;20424;-78
2022/02/22 10:23:10;;;;;;;0.88;0.40;;;14.40;94.40;;;;;;5060889;28;20056;-78
2022/02/22 10:25:41;;;;;;;0.73;0.40;;;14.50;93.40;;;;;;5060927;28;20403;-78
2022/02/22 10:28:16;;;;;;;0.63;0.30;;;14.60;93.10;;;;;;5060710;28;20048;-79
2022/02/22 10:30:46;;;;;;;0.60;0.30;;;14.70;93.70;;;;;;5062574;28;20040;-79
2022/02/22 10:33:18;;;;;;;3.20;0.50;;;14.80;93.00;;;;;;5060214;28;20052;-79
2022/02/22 10:35:48;;;;;;;2.08;0.47;;;14.90;91.40;;;;;;5097495;27;20060;-79
2022/02/22 10:38:20;;;;;;;0.70;0.30;;;14.90;91.80;;;;;;5065206;28;20040;-79
2022/02/22 10:40:56;;;;;;;1.10;0.40;;;15.10;90.50;;;;;;5059462;28;20064;-79
2022/02/22 10:43:29;;;;;;;0.95;0.45;;;15.30;88.30;;;;;;5061899;28;20056;-78
2022/02/22 10:46:00;;;;;;;0.40;0.22;;;15.30;88.40;;;;;;5058426;28;20604;-79
2022/02/22 10:48:34;;;;;;;0.38;0.20;;;15.40;87.70;;;;;;5064754;28;20058;-78
2022/02/22 10:51:04;;;;;;;0.85;0.40;;;15.40;84.30;;;;;;5052109;28;20117;-79
2022/02/22 10:53:43;;;;;;;0.88;0.30;;;15.40;84.30;;;;;;5045239;28;20932;-79
2022/02/22 10:56:15;;;;;;;0.65;0.20;;;15.50;82.90;;;;;;5061668;28;20048;-79
2022/02/22 10:58:45;;;;;;;3.22;1.02;;;15.70;82.80;;;;;;5061624;28;20490;-79
2022/02/22 11:01:15;;;;;;;1.45;0.45;;;15.70;83.30;;;;;;5044733;28;20579;-79
2022/02/22 11:03:45;;;;;;;2.85;0.65;;;15.80;84.70;;;;;;5095721;28;20056;-78
2022/02/22 11:06:14;;;;;;;1.48;0.43;;;15.90;85.50;;;;;;5060965;28;20444;-79
2022/02/22 11:08:46;;;;;;;1.55;0.57;;;16.00;84.80;;;;;;5077031;28;20486;-79
2022/02/22 11:11:38;;;;;;;1.92;0.45;;;16.00;84.10;;;;;;5093154;28;20051;-79
2022/02/22 11:14:09;;;;;;;0.95;0.60;;;15.90;84.40;;;;;;5059401;28;20041;-79
2022/02/22 11:16:42;;;;;;;0.80;0.30;;;16.00;85.00;;;;;;5066355;28;20405;-79
2022/02/22 11:19:17;;;;;;;1.20;0.50;;;16.20;82.30;;;;;;5059807;28;20071;-78
2022/02/22 11:21:47;;;;;;;1.45;0.57;;;16.40;80.60;;;;;;5062167;28;20045;-79
2022/02/22 11:24:15;;;;;;;1.90;0.75;;;16.40;80.30;;;;;;5062250;28;20154;-78
2022/02/22 11:26:50;;;;;;;1.08;0.68;;;16.40;79.70;;;;;;5078367;28;20418;-78
2022/02/22 11:29:20;;;;;;;1.17;0.68;;;16.50;80.60;;;;;;5043661;28;20044;-78
2022/02/22 11:32:00;;;;;;;0.98;0.52;;;16.60;80.50;;;;;;5062107;28;20090;-78
2022/02/22 11:34:32;;;;;;;1.73;0.60;;;16.70;80.70;;;;;;5058810;28;20064;-78
2022/02/22 11:37:03;;;;;;;0.85;0.57;;;16.70;80.50;;;;;;5058605;28;20553;-77
2022/02/22 11:39:42;;;;;;;0.50;0.30;;;16.80;79.20;;;;;;5060392;28;20076;-78
2022/02/22 11:42:19;;;;;;;0.50;0.30;;;16.80;79.30;;;;;;5060116;28;20048;-78
2022/02/22 11:44:58;;;;;;;0.63;0.40;;;16.90;79.00;;;;;;5073858;28;20048;-78
2022/02/22 11:47:27;;;;;;;1.70;0.43;;;17.10;77.00;;;;;;5074689;28;20052;-79
2022/02/22 11:49:56;;;;;;;1.40;0.40;;;17.20;77.90;;;;;;5061447;28;20068;-79
2022/02/22 11:52:40;;;;;;;0.63;0.40;;;17.20;77.30;;;;;;5063910;28;20090;-78
2022/02/22 11:55:11;;;;;;;0.80;0.38;;;17.20;77.50;;;;;;5060590;28;20060;-78
2022/02/22 11:57:45;;;;;;;0.55;0.40;;;16.90;77.00;;;;;;5065304;28;20071;-78
2022/02/22 12:00:15;;;;;;;0.75;0.40;;;17.10;77.60;;;;;;5066890;28;21265;-78
2022/02/22 12:02:47;;;;;;;0.80;0.40;;;17.40;76.30;;;;;;5071469;28;20044;-78
2022/02/22 12:05:26;;;;;;;0.52;0.30;;;17.40;75.00;;;;;;5095798;27;20056;-78
2022/02/22 12:08:00;;;;;;;0.77;0.30;;;17.50;75.60;;;;;;5060856;28;20037;-78
2022/02/22 12:10:30;;;;;;;1.02;0.28;;;17.60;74.80;;;;;;5057544;28;20049;-78
2022/02/22 12:13:10;;;;;;;0.90;0.40;;;17.80;76.00;;;;;;5069661;28;20040;-78
2022/02/22 12:15:39;;;;;;;0.35;0.20;;;17.80;76.40;;;;;;5078733;28;20032;-78
2022/02/22 12:18:15;;;;;;;0.75;0.38;;;17.50;73.00;;;;;;5050610;28;20052;-78
2022/02/22 12:20:48;;;;;;;0.38;0.20;;;17.70;73.40;;;;;;5048074;28;20045;-78
2022/02/22 12:23:18;;;;;;;0.20;0.10;;;17.80;73.30;;;;;;5063531;28;20094;-78
2022/02/22 12:25:49;;;;;;;0.82;0.30;;;17.70;72.30;;;;;;5054483;28;20440;-78
2022/02/22 12:28:21;;;;;;;0.77;0.35;;;18.00;73.70;;;;;;5064779;28;20493;-78
2022/02/22 12:30:51;;;;;;;0.22;0.20;;;18.20;71.90;;;;;;5093656;27;20046;-78
2022/02/22 12:33:29;;;;;;;0.65;0.32;;;18.30;71.60;;;;;;5064701;28;20094;-78
2022/02/22 12:35:57;;;;;;;0.25;0.10;;;18.50;69.50;;;;;;5064694;28;20048;-78
2022/02/22 12:38:26;;;;;;;1.75;0.00;;;18.50;69.70;;;;;;5063108;28;20829;-78
2022/02/22 12:40:54;;;;;;;0.22;0.10;;;18.40;68.90;;;;;;5062617;28;20055;-78
2022/02/22 12:43:46;;;;;;;0.17;0.10;;;18.50;70.40;;;;;;5075254;28;20643;-78
2022/02/22 12:46:16;;;;;;;0.82;0.10;;;18.70;71.30;;;;;;5046505;28;20049;-78
2022/02/22 12:48:45;;;;;;;0.20;0.00;;;18.80;69.10;;;;;;5062924;28;20045;-78
2022/02/22 12:51:23;;;;;;;0.10;0.10;;;19.00;69.40;;;;;;5064992;28;20040;-78
2022/02/22 12:54:01;;;;;;;1.08;0.10;;;19.00;68.90;;;;;;5047192;28;20052;-78
2022/02/22 12:56:32;;;;;;;0.35;0.15;;;19.00;68.50;;;;;;5063233;28;20498;-78
2022/02/22 12:59:03;;;;;;;0.20;0.20;;;18.90;68.10;;;;;;5061535;28;20072;-77
2022/02/22 13:01:34;;;;;;;1.05;0.38;;;18.80;68.40;;;;;;5059203;28;20391;-78
2022/02/22 13:04:04;;;;;;;0.15;0.10;;;18.80;69.00;;;;;;5063345;28;20048;-78
2022/02/22 13:06:36;;;;;;;0.38;0.10;;;18.80;67.80;;;;;;5064014;28;20037;-78
2022/02/22 13:09:08;;;;;;;0.20;0.10;;;18.80;67.00;;;;;;5060129;28;20058;-78